Latest Coastal Weather Observations for Adelaide Airport

IDS60701

Issued at 2:35 pm CDT Wednesday 26 November 2014 (issued every 10 minutes, with the page automatically refreshed every 10 minutes)

About coastal observations | Map of coastal stations | Coastal observations for SA | Marine services | Other Formats
Station Details ID: 023034 Name: ADELAIDE AIRPORT Lat: -34.95 Lon: 138.52 Height: 2.0 m
Data from the previous 72 hours. | See also: Recent months at Adelaide Airport
Date/Time
CDT
Temp

°C
Wind Pressure Rain
since 9am
mm
Weather Cloud Vis
km
Sea
Height
m
Swell
Dir
 
Speed
knots
Gust
knots
hPa Trend Height
m
Period
s
Dir
26/02:00pm 19.4 SW 18 23 1022.5 - 0.0 - Mostly clear 10 - - - -
26/01:30pm 18.9 SW 18 21 1022.9 - 0.0 - Mostly clear 10 - - - -
26/01:00pm 19.1 SW 17 20 1023.2 - 0.0 - Mostly clear 10 - - - -
26/12:30pm 19.0 SW 15 18 1023.6 - 0.0 - Mostly clear 10 - - - -
26/12:00pm 19.3 SW 13 18 1024.0 R 0.0 Fine Partly cloudy 30 - - - -
26/11:30am 19.1 WSW 12 16 1024.2 - 0.0 - Mostly clear 10 - - - -
26/11:00am 18.6 WSW 13 16 1024.3 - 0.0 - Mostly clear 10 - - - -
26/10:30am 18.6 SW 12 17 1024.3 - 0.0 - Mostly clear 10 - - - -
26/10:00am 18.6 SE 7 10 1024.1 - 0.0 - Mostly clear 10 - - - -
26/09:30am 17.7 S 7 14 1024.2 - 0.0 - Mostly clear 10 - - - -
26/09:00am 17.7 ESE 7 10 1024.1 R 0.0 Haze Partly cloudy 25 - - - -
26/08:30am 16.5 SE 8 10 1023.7 - 0.0 - Mostly clear 10 - - - -
26/08:00am 16.0 ESE 5 9 1023.5 - 0.0 - Mostly clear 10 - - - -
26/07:30am 14.8 E 2 4 1023.3 - 0.0 - Mostly clear 10 - - - -
26/07:00am 13.9 ENE 3 4 1022.9 - 0.0 - Mostly clear 10 - - - -
26/06:30am 11.8 E 3 5 1022.7 - 0.0 - Mostly clear 10 - - - -
26/06:00am 11.5 ESE 3 4 1022.2 F 0.0 Fine Mostly clear 30 - - - -
26/05:30am 11.2 SE 4 6 1022.0 - 0.0 - Mostly clear 10 - - - -
26/05:00am 11.2 ESE 4 5 1021.8 - 0.0 - - 10 - - - -
26/04:30am 11.6 ESE 5 5 1021.7 - 0.0 - - 10 - - - -
26/04:00am 12.5 SE 4 5 1021.8 - 0.0 - - 10 - - - -
26/03:30am 12.5 SSE 5 6 1021.8 - 0.0 - - 10 - - - -
26/03:00am 12.7 SSE 5 6 1021.9 F 0.0 Fine Clear 30 - - - -
26/02:30am 12.8 S 5 7 1022.0 - 0.0 - - 10 - - - -
26/02:00am 13.0 S 5 6 1022.0 - 0.0 - - 10 - - - -
26/01:30am 13.5 SE 7 9 1022.2 - 0.0 - - 10 - - - -
26/01:00am 13.5 SSE 8 9 1022.4 - 0.0 - - 10 - - - -
26/12:30am 13.7 SSE 8 11 1022.7 - 0.0 - - 10 - - - -
26/12:00am 13.8 SSE 8 11 1023.1 S 0.0 Fine Clear 10 - - - -
 
Date/Time
CDT
Temp

°C
Wind Pressure Rain
since 9am
mm
Weather Cloud Vis
km
Sea
Height
m
Swell
Dir
 
Speed
knots
Gust
knots
hPa Trend Height
m
Period
s
Dir
25/11:30pm 13.7 SE 7 11 1023.3 - 0.0 - - 10 - - - -
25/11:00pm 14.4 SSE 10 15 1023.3 - 0.0 - - 10 - - - -
25/10:30pm 14.6 SSE 10 14 1023.4 - 0.0 - - 10 - - - -
25/10:00pm 14.9 SE 10 14 1023.3 - 0.0 - - 10 - - - -
25/09:30pm 15.4 SE 8 10 1023.2 - 0.0 - - 10 - - - -
25/09:00pm 16.1 SE 11 14 1022.8 S 0.0 Fine Mostly clear 30 - - - -
25/08:30pm 17.0 SSE 10 14 1022.6 - 0.0 - Mostly clear 10 - - - -
25/08:00pm 17.1 SSW 11 16 1022.4 - 0.0 - Mostly clear 10 - - - -
25/07:30pm 17.5 SSW 11 16 1022.2 - 0.0 - Mostly clear 10 - - - -
25/07:00pm 17.9 SSW 13 18 1021.9 - 0.0 - Mostly clear 10 - - - -
25/06:30pm 18.6 SSW 14 18 1021.8 - 0.0 - Mostly clear 10 - - - -
25/06:00pm 18.7 SW 14 19 1021.8 F 0.0 Fine Mostly clear 30 - - - -
25/05:30pm 19.1 SW 13 17 1021.7 - 0.0 - Mostly clear 10 - - - -
25/05:00pm 18.8 SW 11 15 1021.9 - 0.0 - Mostly clear 10 - - - -
25/04:30pm 18.6 SW 12 16 1022.1 - 0.0 - Mostly clear 10 - - - -
25/04:00pm 18.7 SW 11 16 1022.3 - 0.0 - Mostly clear 10 - - - -
25/03:30pm 18.6 WSW 13 17 1022.4 - 0.0 - Mostly clear 10 - - - -
25/03:00pm 18.5 SW 12 16 1022.6 R 0.0 Fine Mostly clear 30 - - - -
25/02:30pm 18.9 SSW 10 15 1022.8 - 0.0 - Mostly clear 10 - - - -
25/02:00pm 18.7 SW 9 13 1023.0 - 0.0 - Mostly clear 10 - - - -
25/01:30pm 19.1 SW 10 15 1023.2 - 0.0 - Mostly clear 10 - - - -
25/01:00pm 18.6 WSW 10 17 1023.2 - 0.0 - Mostly clear 10 - - - -
25/12:30pm 18.5 SSW 11 16 1023.4 - 0.0 - Mostly clear 10 - - - -
25/12:00pm 18.2 WSW 11 14 1023.4 R 0.0 Fine Partly cloudy 30 - - - -
25/11:30am 18.7 SSW 12 18 1023.5 - 0.0 - Partly cloudy 10 - - - -
25/11:00am 17.9 SW 12 17 1023.6 - 0.0 - Partly cloudy 10 - - - -
25/10:30am 18.3 WSW 10 14 1023.6 - 0.0 - Partly cloudy 10 - - - -
25/10:00am 17.3 SW 9 12 1023.5 - 0.0 - Mostly clear 10 - - - -
25/09:30am 17.2 SSW 10 13 1023.4 - 0.0 - Partly cloudy 10 - - - -
25/09:00am 16.9 SW 6 10 1023.2 R 0.0 Fine Mostly cloudy 30 - - - -
25/08:30am 15.7 NNW 4 6 1023.0 - 0.0 - Partly cloudy 10 - - - -
25/08:00am 15.3 N 5 7 1022.7 - 0.0 - Mostly clear 10 - - - -
25/07:30am 14.8 CALM 0 2 1022.4 - 0.0 - Mostly clear 10 - - - -
25/07:00am 14.8 NE 4 5 1022.2 - 0.0 Showers Partly cloudy 10 - - - -
25/06:30am 13.6 NE 6 7 1021.8 - 0.0 Showers Mostly clear 10 - - - -
25/06:00am 13.0 NE 5 6 1021.3 R 0.0 Haze Partly cloudy 25 - - - -
25/05:30am 12.5 NNE 5 6 1020.8 - 0.0 - Mostly clear 10 - - - -
25/05:00am 12.1 CALM 0 0 1020.5 - 0.0 - Mostly clear 10 - - - -
25/04:30am 11.7 CALM 0 0 1020.3 - 0.0 - Mostly clear 10 - - - -
25/04:00am 12.1 CALM 0 0 1020.1 - 0.0 - Mostly clear 10 - - - -
25/03:30am 12.9 E 3 4 1020.0 - 0.0 - Mostly clear 10 - - - -
25/03:00am 13.1 ESE 4 6 1020.0 R 0.0 Fine Mostly clear 30 - - - -
25/02:30am 13.4 SE 5 6 1020.1 - 0.0 - Mostly clear 10 - - - -
25/02:00am 14.3 SSE 7 9 1019.9 - 0.0 - Mostly clear 10 - - - -
25/01:30am 15.1 SSW 12 17 1020.0 - 0.0 - Mostly clear 10 - - - -
25/01:00am 15.3 SSW 14 19 1019.9 - 0.0 - Mostly clear 10 - - - -
25/12:30am 15.5 SSW 12 17 1019.8 - 0.0 - Mostly clear 10 - - - -
25/12:00am 15.6 S 7 12 1019.9 R 0.0 Fine Mostly clear 30 - - - -
 
Date/Time
CDT
Temp

°C
Wind Pressure Rain
since 9am
mm
Weather Cloud Vis
km
Sea
Height
m
Swell
Dir
 
Speed
knots
Gust
knots
hPa Trend Height
m
Period
s
Dir
24/11:30pm 14.7 S 7 9 1019.9 - 0.0 - Mostly clear 10 - - - -
24/11:00pm 14.5 S 8 12 1019.7 - 0.0 - Mostly clear 10 - - - -
24/10:30pm 15.2 S 8 11 1019.5 - 0.0 - Mostly clear 10 - - - -
24/10:00pm 15.4 S 11 15 1019.2 - 0.0 - Mostly clear 10 - - - -
24/09:30pm 16.4 SSW 13 18 1018.6 - 0.0 - Mostly clear 10 - - - -
24/09:00pm 16.7 SSW 15 19 1018.2 R 0.0 Haze Partly cloudy 30 - - - -
24/08:30pm 16.9 SSW 14 19 1017.9 - 0.0 - Mostly clear 10 - - - -
24/08:00pm 17.2 SW 18 25 1017.5 - 0.0 - Mostly clear 10 - - - -
24/07:30pm 17.2 SW 18 24 1017.0 - 0.0 - Mostly clear 10 - - - -
24/07:00pm 17.7 SW 21 27 1016.6 - 0.0 - Mostly clear 10 - - - -
24/06:30pm 18.4 SW 20 26 1016.4 - 0.0 - Mostly clear 10 - - - -
24/06:00pm 18.6 WSW 21 25 1016.2 R 0.0 Fine Partly cloudy 30 - - - -
24/05:30pm 18.5 SW 20 26 1016.0 - 0.0 - Mostly clear 10 - - - -
24/05:00pm 18.9 SW 21 26 1015.8 - 0.0 - Mostly clear 10 - - - -
24/04:30pm 19.9 SW 21 27 1015.5 - 0.0 - Mostly clear 10 - - - -
24/04:00pm 19.7 SW 21 26 1015.4 - 0.0 - Mostly clear 10 - - - -
24/03:30pm 20.1 WSW 21 27 1015.2 - 0.0 - Mostly clear 10 - - - -
24/03:00pm 20.4 SW 19 24 1015.1 R 0.0 Fine Partly cloudy 30 - - - -
24/02:30pm 20.9 SW 17 21 1015.0 - 0.0 - Partly cloudy 10 - - - -
24/02:00pm 20.1 SW 17 22 1014.9 - 0.0 - Partly cloudy 10 - - - -
24/01:30pm 19.6 SW 15 19 1014.7 - 0.0 - Mostly clear 10 - - - -
24/01:00pm 20.4 SW 17 22 1014.4 - 0.0 - Partly cloudy 10 - - - -
24/12:30pm 20.0 WSW 16 20 1014.3 - 0.0 - Mostly clear 10 - - - -
24/12:00pm 20.5 WSW 15 18 1014.2 R 0.0 Fine Mostly cloudy 30 - - - -
24/11:30am 19.9 WSW 15 19 1013.9 - 0.0 - Mostly clear 10 - - - -
24/11:00am 20.5 WSW 17 21 1013.6 - 0.0 - Mostly clear 10 - - - -
24/10:30am 20.3 SW 17 22 1013.3 - 0.0 - Mostly clear 10 - - - -
24/10:00am 21.0 SW 13 18 1013.0 - 0.0 - Mostly clear 10 - - - -
24/09:30am 20.5 SSW 11 17 1012.8 - 0.0 - Mostly clear 10 - - - -
24/09:00am 20.3 SSW 12 16 1012.3 R 0.0 Fine Partly cloudy 30 - - - -
24/08:30am 19.0 SSW 11 14 1011.8 - 0.0 - Partly cloudy 10 - - - -
24/08:00am 18.8 S 9 13 1011.1 - 0.0 - Partly cloudy 10 - - - -
24/07:30am 18.2 S 11 15 1010.8 - 0.0 - Mostly clear 10 - - - -
24/07:00am 17.8 S 15 20 1009.8 - 0.0 - Partly cloudy 10 - - - -
24/06:30am 17.7 S 15 19 1008.9 - 0.0 - Mostly clear 10 - - - -
24/06:00am 18.6 SSW 13 17 1007.9 R 0.0 Recent th'storm Mostly cloudy 30 - - - -
24/05:30am 19.1 SSE 10 13 1007.0 - 0.0 - Partly cloudy 10 - - - -
24/05:00am 19.9 SSE 11 15 1006.4 - 0.0 - Mostly clear 10 - - - -
24/04:30am 20.3 S 6 7 1006.1 - 0.0 Thunder Mostly clear 10 - - - -
24/04:00am 19.9 SW 11 14 1005.9 - 0.0 - Mostly clear 10 - - - -
24/03:30am 22.2 WNW 6 8 1005.6 - 0.0 - Mostly clear 10 - - - -
24/03:00am 23.2 NE 9 11 1005.5 F 0.0 Thunder Cloudy 30 - - - -
24/02:30am 23.6 NE 14 17 1005.8 - 0.0 - - 10 - - - -
24/02:00am 23.7 NE 11 17 1006.2 - 0.0 - - 10 - - - -
24/01:30am 20.5 NNE 5 12 1006.6 - 0.0 - - 10 - - - -
24/01:00am 21.1 SSW 6 7 1007.4 - 0.0 - - 10 - - - -
24/12:30am 23.2 NE 8 11 1007.5 - 0.0 - - 10 - - - -
24/12:00am 22.5 NE 7 8 1007.7 F 0.0 Fine Mostly cloudy 30 - - - -
 
Date/Time
CDT
Temp

°C
Wind Pressure Rain
since 9am
mm
Weather Cloud Vis
km
Sea
Height
m
Swell
Dir
 
Speed
knots
Gust
knots
hPa Trend Height
m
Period
s
Dir
23/11:30pm 22.5 SSE 6 7 1008.0 - 0.0 - - 10 - - - -
23/11:00pm 22.9 ESE 8 10 1008.1 - 0.0 - - 10 - - - -
23/10:30pm 22.6 SE 7 9 1008.5 - 0.0 - - 10 - - - -
23/10:00pm 23.2 SSE 10 13 1008.4 - 0.0 - - 10 - - - -
23/09:30pm 24.0 S 9 10 1008.6 - 0.0 - - 10 - - - -
23/09:00pm 24.1 S 7 9 1008.4 F 0.0 Fine Partly cloudy 35 - - - -
23/08:30pm 25.1 SSE 9 12 1008.2 - 0.0 - - 10 - - - -
23/08:00pm 26.1 S 7 8 1008.1 - 0.0 - - 10 - - - -
23/07:30pm 26.8 SE 8 10 1007.6 - 0.0 - - 10 - - - -
23/07:00pm 26.0 SE 6 9 1007.9 - 0.0 - - 10 - - - -
23/06:30pm 27.6 SE 8 11 1008.0 - 0.0 - - 10 - - - -
23/06:00pm 26.0 SSW 7 8 1008.9 F 0.0 Fine Mostly cloudy 30 - - - -
23/05:30pm 23.2 SW 6 7 1009.5 - 0.0 - - 10 - - - -
23/05:00pm 25.4 S 6 8 1009.6 - 0.0 - - 10 - - - -
23/04:30pm 24.7 S 5 7 1010.3 - 0.0 - - 10 - - - -
23/04:00pm 24.2 S 6 9 1010.7 - 0.0 - - 10 - - - -
23/03:30pm 22.7 SW 6 8 1011.7 - 0.0 - - 10 - - - -
23/03:00pm 21.5 W 9 10 1012.6 R 0.0 Fine Mostly cloudy 30 - - - -

Other Formats:

Comma delimited format used in spreadsheet applications
http://www.bom.gov.au/fwo/IDS60701/IDS60701.94672.axf

JavaScript Object Notation format (JSON) in row-major order
http://www.bom.gov.au/fwo/IDS60701/IDS60701.94672.json